sensor_id;sensor_type;location;lat;lon;timestamp;P1;durP1;ratioP1;P2;durP2;ratioP2
23728;SDS011;12045;60.214;24.724;2022-11-04T00:00:23;7.53;;;4.28;;
23728;SDS011;12045;60.214;24.724;2022-11-04T00:02:55;7.05;;;4.07;;
23728;SDS011;12045;60.214;24.724;2022-11-04T00:05:23;8.90;;;4.45;;
23728;SDS011;12045;60.214;24.724;2022-11-04T00:07:50;6.00;;;4.30;;
23728;SDS011;12045;60.214;24.724;2022-11-04T00:10:37;7.78;;;4.82;;
23728;SDS011;12045;60.214;24.724;2022-11-04T00:13:37;9.70;;;5.18;;
23728;SDS011;12045;60.214;24.724;2022-11-04T00:16:05;8.30;;;4.78;;
23728;SDS011;12045;60.214;24.724;2022-11-04T00:18:51;7.03;;;4.28;;
23728;SDS011;12045;60.214;24.724;2022-11-04T00:21:19;8.15;;;4.70;;
23728;SDS011;12045;60.214;24.724;2022-11-04T00:24:05;9.15;;;4.82;;
23728;SDS011;12045;60.214;24.724;2022-11-04T00:26:55;8.23;;;4.88;;
23728;SDS011;12045;60.214;24.724;2022-11-04T00:29:41;8.13;;;4.60;;
23728;SDS011;12045;60.214;24.724;2022-11-04T00:32:10;7.75;;;5.05;;
23728;SDS011;12045;60.214;24.724;2022-11-04T00:34:56;10.32;;;4.47;;
23728;SDS011;12045;60.214;24.724;2022-11-04T00:37:23;7.43;;;5.00;;
23728;SDS011;12045;60.214;24.724;2022-11-04T00:39:51;9.00;;;4.47;;
23728;SDS011;12045;60.214;24.724;2022-11-04T00:42:19;9.60;;;5.18;;
23728;SDS011;12045;60.214;24.724;2022-11-04T00:44:46;11.55;;;5.22;;
23728;SDS011;12045;60.214;24.724;2022-11-04T00:47:14;8.68;;;4.85;;
23728;SDS011;12045;60.214;24.724;2022-11-04T00:49:41;10.80;;;5.30;;
23728;SDS011;12045;60.214;24.724;2022-11-04T00:52:09;12.27;;;5.95;;
23728;SDS011;12045;60.214;24.724;2022-11-04T00:54:37;9.73;;;5.10;;
23728;SDS011;12045;60.214;24.724;2022-11-04T00:57:08;8.57;;;5.03;;
23728;SDS011;12045;60.214;24.724;2022-11-04T00:59:36;8.93;;;5.00;;
23728;SDS011;12045;60.214;24.724;2022-11-04T01:02:04;10.02;;;4.85;;
23728;SDS011;12045;60.214;24.724;2022-11-04T01:04:32;7.35;;;4.70;;
23728;SDS011;12045;60.214;24.724;2022-11-04T01:07:00;8.10;;;4.72;;
23728;SDS011;12045;60.214;24.724;2022-11-04T01:09:28;6.88;;;4.20;;
23728;SDS011;12045;60.214;24.724;2022-11-04T01:11:56;7.40;;;4.38;;
23728;SDS011;12045;60.214;24.724;2022-11-04T01:14:23;8.68;;;5.00;;
23728;SDS011;12045;60.214;24.724;2022-11-04T01:16:51;8.55;;;4.60;;
23728;SDS011;12045;60.214;24.724;2022-11-04T01:19:18;9.27;;;4.53;;
23728;SDS011;12045;60.214;24.724;2022-11-04T01:21:48;6.90;;;4.07;;
23728;SDS011;12045;60.214;24.724;2022-11-04T01:24:17;6.68;;;4.22;;
23728;SDS011;12045;60.214;24.724;2022-11-04T01:26:45;6.05;;;3.95;;
23728;SDS011;12045;60.214;24.724;2022-11-04T01:29:13;8.70;;;4.20;;
23728;SDS011;12045;60.214;24.724;2022-11-04T01:31:40;9.40;;;4.10;;
23728;SDS011;12045;60.214;24.724;2022-11-04T01:34:08;6.82;;;4.03;;
23728;SDS011;12045;60.214;24.724;2022-11-04T01:36:36;7.03;;;4.18;;
23728;SDS011;12045;60.214;24.724;2022-11-04T01:39:03;7.75;;;4.53;;
23728;SDS011;12045;60.214;24.724;2022-11-04T01:41:32;6.07;;;4.07;;
23728;SDS011;12045;60.214;24.724;2022-11-04T01:44:02;6.05;;;4.43;;
23728;SDS011;12045;60.214;24.724;2022-11-04T01:46:50;6.50;;;4.03;;
23728;SDS011;12045;60.214;24.724;2022-11-04T01:51:56;7.25;;;4.40;;
23728;SDS011;12045;60.214;24.724;2022-11-04T01:54:31;8.98;;;4.68;;
23728;SDS011;12045;60.214;24.724;2022-11-04T01:57:00;8.90;;;5.18;;
23728;SDS011;12045;60.214;24.724;2022-11-04T01:59:33;8.32;;;4.50;;
23728;SDS011;12045;60.214;24.724;2022-11-04T02:02:04;8.23;;;5.07;;
23728;SDS011;12045;60.214;24.724;2022-11-04T02:04:34;7.38;;;4.90;;
23728;SDS011;12045;60.214;24.724;2022-11-04T02:07:03;7.82;;;4.75;;
23728;SDS011;12045;60.214;24.724;2022-11-04T02:09:34;6.40;;;4.57;;
23728;SDS011;12045;60.214;24.724;2022-11-04T02:12:03;7.55;;;4.63;;
23728;SDS011;12045;60.214;24.724;2022-11-04T02:14:50;7.50;;;4.57;;
23728;SDS011;12045;60.214;24.724;2022-11-04T02:17:30;7.60;;;4.57;;
23728;SDS011;12045;60.214;24.724;2022-11-04T02:30:45;9.32;;;5.15;;
23728;SDS011;12045;60.214;24.724;2022-11-04T02:39:21;7.78;;;4.88;;
23728;SDS011;12045;60.214;24.724;2022-11-04T02:42:19;10.75;;;4.88;;
23728;SDS011;12045;60.214;24.724;2022-11-04T02:45:13;9.00;;;4.93;;
23728;SDS011;12045;60.214;24.724;2022-11-04T02:47:52;7.57;;;4.57;;
23728;SDS011;12045;60.214;24.724;2022-11-04T02:50:26;7.43;;;5.03;;
23728;SDS011;12045;60.214;24.724;2022-11-04T02:55:56;7.82;;;4.75;;
23728;SDS011;12045;60.214;24.724;2022-11-04T02:58:29;8.52;;;4.70;;
23728;SDS011;12045;60.214;24.724;2022-11-04T03:01:00;10.60;;;5.38;;
23728;SDS011;12045;60.214;24.724;2022-11-04T03:03:32;7.18;;;4.70;;
23728;SDS011;12045;60.214;24.724;2022-11-04T03:06:04;7.95;;;4.85;;
23728;SDS011;12045;60.214;24.724;2022-11-04T03:08:34;8.27;;;4.65;;
23728;SDS011;12045;60.214;24.724;2022-11-04T03:11:07;9.70;;;4.70;;
23728;SDS011;12045;60.214;24.724;2022-11-04T03:13:40;8.63;;;4.40;;
23728;SDS011;12045;60.214;24.724;2022-11-04T03:16:18;6.10;;;4.03;;
23728;SDS011;12045;60.214;24.724;2022-11-04T03:22:01;7.70;;;4.43;;
23728;SDS011;12045;60.214;24.724;2022-11-04T03:24:32;8.50;;;4.82;;
23728;SDS011;12045;60.214;24.724;2022-11-04T03:29:35;8.77;;;4.40;;
23728;SDS011;12045;60.214;24.724;2022-11-04T03:35:04;9.48;;;4.25;;
23728;SDS011;12045;60.214;24.724;2022-11-04T03:37:32;8.43;;;4.15;;
23728;SDS011;12045;60.214;24.724;2022-11-04T03:40:00;10.07;;;4.50;;
23728;SDS011;12045;60.214;24.724;2022-11-04T03:42:30;9.38;;;4.40;;
23728;SDS011;12045;60.214;24.724;2022-11-04T03:45:00;7.43;;;4.22;;
23728;SDS011;12045;60.214;24.724;2022-11-04T03:47:28;9.90;;;4.30;;
23728;SDS011;12045;60.214;24.724;2022-11-04T03:49:58;8.75;;;4.45;;
23728;SDS011;12045;60.214;24.724;2022-11-04T03:52:33;9.77;;;4.32;;
23728;SDS011;12045;60.214;24.724;2022-11-04T03:55:02;8.52;;;4.65;;
23728;SDS011;12045;60.214;24.724;2022-11-04T04:00:33;8.45;;;4.50;;
23728;SDS011;12045;60.214;24.724;2022-11-04T04:03:26;9.07;;;4.25;;
23728;SDS011;12045;60.214;24.724;2022-11-04T04:08:37;9.95;;;5.18;;
23728;SDS011;12045;60.214;24.724;2022-11-04T04:11:16;8.52;;;5.00;;
23728;SDS011;12045;60.214;24.724;2022-11-04T04:14:05;12.65;;;4.95;;
23728;SDS011;12045;60.214;24.724;2022-11-04T04:20:02;10.35;;;5.03;;
23728;SDS011;12045;60.214;24.724;2022-11-04T04:22:35;9.63;;;4.80;;
23728;SDS011;12045;60.214;24.724;2022-11-04T04:25:08;9.90;;;5.28;;
23728;SDS011;12045;60.214;24.724;2022-11-04T04:27:55;11.52;;;5.80;;
23728;SDS011;12045;60.214;24.724;2022-11-04T04:30:25;12.05;;;5.55;;
23728;SDS011;12045;60.214;24.724;2022-11-04T04:32:55;11.23;;;6.07;;
23728;SDS011;12045;60.214;24.724;2022-11-04T04:35:29;10.48;;;5.60;;
23728;SDS011;12045;60.214;24.724;2022-11-04T04:44:08;11.95;;;6.20;;
23728;SDS011;12045;60.214;24.724;2022-11-04T04:47:04;11.30;;;5.28;;
23728;SDS011;12045;60.214;24.724;2022-11-04T04:49:33;16.60;;;6.25;;
23728;SDS011;12045;60.214;24.724;2022-11-04T04:52:01;13.15;;;5.90;;
23728;SDS011;12045;60.214;24.724;2022-11-04T04:54:30;11.85;;;5.88;;
23728;SDS011;12045;60.214;24.724;2022-11-04T04:56:58;11.60;;;5.38;;
23728;SDS011;12045;60.214;24.724;2022-11-04T04:59:26;10.45;;;5.28;;
23728;SDS011;12045;60.214;24.724;2022-11-04T05:01:53;11.32;;;5.60;;
23728;SDS011;12045;60.214;24.724;2022-11-04T05:04:21;10.15;;;5.40;;
23728;SDS011;12045;60.214;24.724;2022-11-04T05:06:48;10.85;;;5.45;;
23728;SDS011;12045;60.214;24.724;2022-11-04T05:09:16;9.95;;;5.07;;
23728;SDS011;12045;60.214;24.724;2022-11-04T05:11:44;11.60;;;5.55;;
23728;SDS011;12045;60.214;24.724;2022-11-04T05:14:11;10.65;;;5.30;;
23728;SDS011;12045;60.214;24.724;2022-11-04T05:16:38;10.68;;;5.35;;
23728;SDS011;12045;60.214;24.724;2022-11-04T05:19:06;10.32;;;5.40;;
23728;SDS011;12045;60.214;24.724;2022-11-04T05:21:34;9.60;;;5.57;;
23728;SDS011;12045;60.214;24.724;2022-11-04T05:24:01;12.00;;;6.13;;
23728;SDS011;12045;60.214;24.724;2022-11-04T05:26:29;10.30;;;5.25;;
23728;SDS011;12045;60.214;24.724;2022-11-04T05:28:58;8.98;;;5.65;;
23728;SDS011;12045;60.214;24.724;2022-11-04T05:31:26;9.82;;;5.25;;
23728;SDS011;12045;60.214;24.724;2022-11-04T05:33:55;8.52;;;4.82;;
23728;SDS011;12045;60.214;24.724;2022-11-04T05:36:25;12.20;;;6.10;;
23728;SDS011;12045;60.214;24.724;2022-11-04T05:38:53;10.43;;;5.57;;
23728;SDS011;12045;60.214;24.724;2022-11-04T05:41:23;11.85;;;5.80;;
23728;SDS011;12045;60.214;24.724;2022-11-04T05:43:57;11.35;;;5.15;;
23728;SDS011;12045;60.214;24.724;2022-11-04T05:46:27;10.23;;;5.97;;
23728;SDS011;12045;60.214;24.724;2022-11-04T05:48:55;9.75;;;5.22;;
23728;SDS011;12045;60.214;24.724;2022-11-04T05:51:24;10.65;;;6.07;;
23728;SDS011;12045;60.214;24.724;2022-11-04T05:53:53;11.63;;;5.97;;
23728;SDS011;12045;60.214;24.724;2022-11-04T05:56:21;11.75;;;5.13;;
23728;SDS011;12045;60.214;24.724;2022-11-04T05:58:49;9.60;;;4.95;;
23728;SDS011;12045;60.214;24.724;2022-11-04T06:01:33;8.90;;;5.22;;
23728;SDS011;12045;60.214;24.724;2022-11-04T06:04:03;8.65;;;5.03;;
23728;SDS011;12045;60.214;24.724;2022-11-04T06:06:32;8.18;;;5.00;;
23728;SDS011;12045;60.214;24.724;2022-11-04T06:09:01;11.88;;;5.78;;
23728;SDS011;12045;60.214;24.724;2022-11-04T06:11:30;10.30;;;5.70;;
23728;SDS011;12045;60.214;24.724;2022-11-04T06:13:59;10.27;;;6.10;;
23728;SDS011;12045;60.214;24.724;2022-11-04T06:16:27;10.52;;;4.88;;
23728;SDS011;12045;60.214;24.724;2022-11-04T06:18:55;8.55;;;4.97;;
23728;SDS011;12045;60.214;24.724;2022-11-04T06:21:31;11.32;;;4.72;;
23728;SDS011;12045;60.214;24.724;2022-11-04T06:27:01;10.55;;;5.22;;
23728;SDS011;12045;60.214;24.724;2022-11-04T06:33:27;13.77;;;5.93;;
23728;SDS011;12045;60.214;24.724;2022-11-04T06:36:34;11.60;;;5.78;;
23728;SDS011;12045;60.214;24.724;2022-11-04T06:39:03;10.85;;;6.22;;
23728;SDS011;12045;60.214;24.724;2022-11-04T06:41:31;12.15;;;6.70;;
23728;SDS011;12045;60.214;24.724;2022-11-04T06:44:21;14.23;;;7.15;;
23728;SDS011;12045;60.214;24.724;2022-11-04T06:46:50;14.75;;;7.28;;
23728;SDS011;12045;60.214;24.724;2022-11-04T06:49:19;16.80;;;8.43;;
23728;SDS011;12045;60.214;24.724;2022-11-04T06:51:54;14.10;;;7.85;;
23728;SDS011;12045;60.214;24.724;2022-11-04T06:54:22;15.32;;;8.40;;
23728;SDS011;12045;60.214;24.724;2022-11-04T06:56:51;14.02;;;7.95;;
23728;SDS011;12045;60.214;24.724;2022-11-04T06:59:19;14.93;;;7.85;;
23728;SDS011;12045;60.214;24.724;2022-11-04T07:01:51;14.00;;;7.30;;
23728;SDS011;12045;60.214;24.724;2022-11-04T07:04:19;15.93;;;7.68;;
23728;SDS011;12045;60.214;24.724;2022-11-04T07:06:47;17.67;;;8.27;;
23728;SDS011;12045;60.214;24.724;2022-11-04T07:09:16;16.73;;;8.55;;
23728;SDS011;12045;60.214;24.724;2022-11-04T07:11:45;13.50;;;8.00;;
23728;SDS011;12045;60.214;24.724;2022-11-04T07:14:14;15.35;;;7.65;;
23728;SDS011;12045;60.214;24.724;2022-11-04T07:16:42;12.75;;;7.25;;
23728;SDS011;12045;60.214;24.724;2022-11-04T07:22:03;16.98;;;7.10;;
23728;SDS011;12045;60.214;24.724;2022-11-04T07:24:31;15.07;;;6.95;;
23728;SDS011;12045;60.214;24.724;2022-11-04T07:27:04;12.45;;;6.00;;
23728;SDS011;12045;60.214;24.724;2022-11-04T07:29:33;12.80;;;6.85;;
23728;SDS011;12045;60.214;24.724;2022-11-04T07:35:25;12.35;;;5.88;;
23728;SDS011;12045;60.214;24.724;2022-11-04T07:37:54;14.85;;;5.85;;
23728;SDS011;12045;60.214;24.724;2022-11-04T07:40:22;11.88;;;6.28;;
23728;SDS011;12045;60.214;24.724;2022-11-04T07:42:54;15.30;;;6.45;;
23728;SDS011;12045;60.214;24.724;2022-11-04T07:45:22;12.30;;;6.30;;
23728;SDS011;12045;60.214;24.724;2022-11-04T07:55:54;11.52;;;5.97;;
23728;SDS011;12045;60.214;24.724;2022-11-04T07:58:45;10.27;;;5.93;;
23728;SDS011;12045;60.214;24.724;2022-11-04T08:01:15;11.65;;;5.68;;
23728;SDS011;12045;60.214;24.724;2022-11-04T08:04:34;10.48;;;5.30;;
23728;SDS011;12045;60.214;24.724;2022-11-04T08:07:08;10.63;;;5.00;;
23728;SDS011;12045;60.214;24.724;2022-11-04T08:09:38;8.98;;;4.90;;
23728;SDS011;12045;60.214;24.724;2022-11-04T08:12:09;7.80;;;4.85;;
23728;SDS011;12045;60.214;24.724;2022-11-04T08:14:37;9.18;;;4.50;;
23728;SDS011;12045;60.214;24.724;2022-11-04T08:17:05;7.68;;;3.70;;
23728;SDS011;12045;60.214;24.724;2022-11-04T08:19:33;7.68;;;4.03;;
23728;SDS011;12045;60.214;24.724;2022-11-04T08:22:03;8.38;;;4.57;;
23728;SDS011;12045;60.214;24.724;2022-11-04T08:24:38;9.40;;;4.60;;
23728;SDS011;12045;60.214;24.724;2022-11-04T08:27:08;8.32;;;4.43;;
23728;SDS011;12045;60.214;24.724;2022-11-04T08:29:36;7.13;;;4.05;;
23728;SDS011;12045;60.214;24.724;2022-11-04T08:32:06;7.70;;;4.43;;
23728;SDS011;12045;60.214;24.724;2022-11-04T08:34:38;7.43;;;4.32;;
23728;SDS011;12045;60.214;24.724;2022-11-04T08:37:06;6.35;;;3.92;;
23728;SDS011;12045;60.214;24.724;2022-11-04T08:39:35;6.70;;;4.20;;
23728;SDS011;12045;60.214;24.724;2022-11-04T08:42:06;7.50;;;4.57;;
23728;SDS011;12045;60.214;24.724;2022-11-04T08:44:37;8.40;;;4.30;;
23728;SDS011;12045;60.214;24.724;2022-11-04T08:47:08;7.50;;;4.45;;
23728;SDS011;12045;60.214;24.724;2022-11-04T08:49:38;7.53;;;3.92;;
23728;SDS011;12045;60.214;24.724;2022-11-04T08:52:09;6.68;;;4.18;;
23728;SDS011;12045;60.214;24.724;2022-11-04T08:54:38;9.07;;;4.65;;
23728;SDS011;12045;60.214;24.724;2022-11-04T08:57:10;10.02;;;5.75;;
23728;SDS011;12045;60.214;24.724;2022-11-04T08:59:39;11.20;;;4.97;;
23728;SDS011;12045;60.214;24.724;2022-11-04T09:02:12;9.70;;;4.43;;
23728;SDS011;12045;60.214;24.724;2022-11-04T09:04:42;7.82;;;4.65;;
23728;SDS011;12045;60.214;24.724;2022-11-04T09:07:10;10.30;;;4.75;;
23728;SDS011;12045;60.214;24.724;2022-11-04T09:09:38;10.15;;;5.15;;
23728;SDS011;12045;60.214;24.724;2022-11-04T09:12:10;7.63;;;4.30;;
23728;SDS011;12045;60.214;24.724;2022-11-04T09:14:40;6.63;;;4.18;;
23728;SDS011;12045;60.214;24.724;2022-11-04T09:17:09;7.45;;;4.15;;
23728;SDS011;12045;60.214;24.724;2022-11-04T09:19:37;6.85;;;4.00;;
23728;SDS011;12045;60.214;24.724;2022-11-04T09:22:05;8.68;;;4.10;;
23728;SDS011;12045;60.214;24.724;2022-11-04T09:24:33;5.90;;;3.72;;
23728;SDS011;12045;60.214;24.724;2022-11-04T09:27:00;6.90;;;3.97;;
23728;SDS011;12045;60.214;24.724;2022-11-04T09:29:29;6.88;;;4.10;;
23728;SDS011;12045;60.214;24.724;2022-11-04T09:31:59;8.23;;;4.05;;
23728;SDS011;12045;60.214;24.724;2022-11-04T09:34:27;8.88;;;4.10;;
23728;SDS011;12045;60.214;24.724;2022-11-04T09:36:56;4.80;;;3.00;;
23728;SDS011;12045;60.214;24.724;2022-11-04T09:39:25;5.72;;;3.17;;
23728;SDS011;12045;60.214;24.724;2022-11-04T09:47:39;7.00;;;2.85;;
23728;SDS011;12045;60.214;24.724;2022-11-04T09:50:09;7.88;;;3.20;;
23728;SDS011;12045;60.214;24.724;2022-11-04T09:53:08;4.80;;;2.80;;
23728;SDS011;12045;60.214;24.724;2022-11-04T09:55:50;5.43;;;2.92;;
23728;SDS011;12045;60.214;24.724;2022-11-04T09:58:28;4.43;;;2.65;;
23728;SDS011;12045;60.214;24.724;2022-11-04T10:06:43;6.10;;;2.90;;
23728;SDS011;12045;60.214;24.724;2022-11-04T10:18:39;4.35;;;3.25;;
23728;SDS011;12045;60.214;24.724;2022-11-04T10:21:33;6.22;;;2.83;;
23728;SDS011;12045;60.214;24.724;2022-11-04T10:26:46;8.60;;;3.47;;
23728;SDS011;12045;60.214;24.724;2022-11-04T10:31:57;4.72;;;2.92;;
23728;SDS011;12045;60.214;24.724;2022-11-04T10:34:33;3.38;;;2.63;;
23728;SDS011;12045;60.214;24.724;2022-11-04T10:37:08;4.70;;;2.75;;
23728;SDS011;12045;60.214;24.724;2022-11-04T10:39:44;5.43;;;2.78;;
23728;SDS011;12045;60.214;24.724;2022-11-04T10:42:17;4.45;;;2.85;;
23728;SDS011;12045;60.214;24.724;2022-11-04T10:44:51;3.72;;;2.47;;
23728;SDS011;12045;60.214;24.724;2022-11-04T10:54:52;4.05;;;2.00;;
23728;SDS011;12045;60.214;24.724;2022-11-04T10:57:53;3.47;;;2.40;;
23728;SDS011;12045;60.214;24.724;2022-11-04T11:04:07;6.53;;;2.47;;
23728;SDS011;12045;60.214;24.724;2022-11-04T11:06:51;4.85;;;2.55;;
23728;SDS011;12045;60.214;24.724;2022-11-04T11:09:25;4.65;;;2.40;;
23728;SDS011;12045;60.214;24.724;2022-11-04T11:15:24;5.63;;;2.60;;
23728;SDS011;12045;60.214;24.724;2022-11-04T11:18:00;4.85;;;2.80;;
23728;SDS011;12045;60.214;24.724;2022-11-04T11:27:29;5.78;;;2.63;;
23728;SDS011;12045;60.214;24.724;2022-11-04T11:29:57;6.93;;;2.58;;
23728;SDS011;12045;60.214;24.724;2022-11-04T11:32:27;6.22;;;2.40;;
23728;SDS011;12045;60.214;24.724;2022-11-04T11:35:50;5.50;;;2.70;;
23728;SDS011;12045;60.214;24.724;2022-11-04T11:38:35;4.45;;;2.55;;
23728;SDS011;12045;60.214;24.724;2022-11-04T11:50:36;4.25;;;2.55;;
23728;SDS011;12045;60.214;24.724;2022-11-04T11:53:28;4.97;;;2.88;;
23728;SDS011;12045;60.214;24.724;2022-11-04T11:56:12;3.15;;;2.13;;
23728;SDS011;12045;60.214;24.724;2022-11-04T11:58:54;2.60;;;1.95;;
23728;SDS011;12045;60.214;24.724;2022-11-04T12:04:27;4.82;;;1.92;;
23728;SDS011;12045;60.214;24.724;2022-11-04T12:10:19;3.25;;;1.50;;
23728;SDS011;12045;60.214;24.724;2022-11-04T12:13:15;2.42;;;1.60;;
23728;SDS011;12045;60.214;24.724;2022-11-04T12:21:26;1.67;;;1.20;;
23728;SDS011;12045;60.214;24.724;2022-11-04T12:29:56;2.55;;;1.33;;
23728;SDS011;12045;60.214;24.724;2022-11-04T12:32:43;2.33;;;1.65;;
23728;SDS011;12045;60.214;24.724;2022-11-04T12:47:34;2.15;;;1.60;;
23728;SDS011;12045;60.214;24.724;2022-11-04T12:50:31;2.05;;;1.45;;
23728;SDS011;12045;60.214;24.724;2022-11-04T12:56:19;2.72;;;1.60;;
23728;SDS011;12045;60.214;24.724;2022-11-04T13:02:00;2.78;;;1.75;;
23728;SDS011;12045;60.214;24.724;2022-11-04T13:04:40;1.88;;;1.50;;
23728;SDS011;12045;60.214;24.724;2022-11-04T13:07:23;4.75;;;1.70;;
23728;SDS011;12045;60.214;24.724;2022-11-04T13:10:38;3.33;;;1.77;;
23728;SDS011;12045;60.214;24.724;2022-11-04T13:13:36;2.17;;;1.60;;
23728;SDS011;12045;60.214;24.724;2022-11-04T13:16:07;5.70;;;1.90;;
23728;SDS011;12045;60.214;24.724;2022-11-04T13:18:42;4.30;;;1.98;;
23728;SDS011;12045;60.214;24.724;2022-11-04T13:21:16;4.93;;;1.90;;
23728;SDS011;12045;60.214;24.724;2022-11-04T13:26:59;5.20;;;2.05;;
23728;SDS011;12045;60.214;24.724;2022-11-04T13:29:30;4.30;;;2.28;;
23728;SDS011;12045;60.214;24.724;2022-11-04T13:32:01;4.78;;;2.03;;
23728;SDS011;12045;60.214;24.724;2022-11-04T13:34:38;3.85;;;2.30;;
23728;SDS011;12045;60.214;24.724;2022-11-04T13:37:17;2.67;;;1.95;;
23728;SDS011;12045;60.214;24.724;2022-11-04T13:39:52;3.90;;;2.08;;
23728;SDS011;12045;60.214;24.724;2022-11-04T13:42:32;5.75;;;2.25;;
23728;SDS011;12045;60.214;24.724;2022-11-04T13:45:19;4.47;;;2.13;;
23728;SDS011;12045;60.214;24.724;2022-11-04T13:47:54;4.43;;;2.22;;
23728;SDS011;12045;60.214;24.724;2022-11-04T13:50:31;3.78;;;2.60;;
23728;SDS011;12045;60.214;24.724;2022-11-04T13:53:04;3.28;;;2.08;;
23728;SDS011;12045;60.214;24.724;2022-11-04T13:55:39;2.55;;;1.70;;
23728;SDS011;12045;60.214;24.724;2022-11-04T13:58:25;2.20;;;1.58;;
23728;SDS011;12045;60.214;24.724;2022-11-04T14:01:40;2.95;;;2.00;;
23728;SDS011;12045;60.214;24.724;2022-11-04T14:03:52;4.00;;;2.30;;
23728;SDS011;12045;60.214;24.724;2022-11-04T14:12:17;2.65;;;2.17;;
23728;SDS011;12045;60.214;24.724;2022-11-04T14:14:53;3.33;;;2.25;;
23728;SDS011;12045;60.214;24.724;2022-11-04T14:22:33;5.53;;;2.38;;
23728;SDS011;12045;60.214;24.724;2022-11-04T14:27:55;4.57;;;2.20;;
23728;SDS011;12045;60.214;24.724;2022-11-04T14:31:31;3.13;;;2.22;;
23728;SDS011;12045;60.214;24.724;2022-11-04T14:33:50;5.13;;;2.00;;
23728;SDS011;12045;60.214;24.724;2022-11-04T14:41:56;3.28;;;2.30;;
23728;SDS011;12045;60.214;24.724;2022-11-04T14:44:35;4.20;;;2.20;;
23728;SDS011;12045;60.214;24.724;2022-11-04T14:47:16;5.03;;;2.45;;
23728;SDS011;12045;60.214;24.724;2022-11-04T14:55:02;2.83;;;2.22;;
23728;SDS011;12045;60.214;24.724;2022-11-04T14:57:43;5.38;;;2.30;;
23728;SDS011;12045;60.214;24.724;2022-11-04T15:05:58;3.30;;;2.40;;
23728;SDS011;12045;60.214;24.724;2022-11-04T15:08:33;3.15;;;2.42;;
23728;SDS011;12045;60.214;24.724;2022-11-04T15:16:17;6.65;;;2.42;;
23728;SDS011;12045;60.214;24.724;2022-11-04T15:18:52;3.28;;;2.50;;
23728;SDS011;12045;60.214;24.724;2022-11-04T15:21:21;3.03;;;2.20;;
23728;SDS011;12045;60.214;24.724;2022-11-04T15:23:50;4.22;;;2.47;;
23728;SDS011;12045;60.214;24.724;2022-11-04T15:26:24;2.92;;;2.28;;
23728;SDS011;12045;60.214;24.724;2022-11-04T15:28:58;4.38;;;2.22;;
23728;SDS011;12045;60.214;24.724;2022-11-04T15:31:28;3.08;;;2.10;;
23728;SDS011;12045;60.214;24.724;2022-11-04T15:34:04;3.72;;;2.50;;
23728;SDS011;12045;60.214;24.724;2022-11-04T15:36:40;3.67;;;2.80;;
23728;SDS011;12045;60.214;24.724;2022-11-04T15:41:53;3.47;;;2.20;;
23728;SDS011;12045;60.214;24.724;2022-11-04T15:44:48;3.60;;;2.20;;
23728;SDS011;12045;60.214;24.724;2022-11-04T15:49:45;2.65;;;1.88;;
23728;SDS011;12045;60.214;24.724;2022-11-04T15:54:44;2.38;;;1.95;;
23728;SDS011;12045;60.214;24.724;2022-11-04T15:57:15;2.45;;;1.88;;
23728;SDS011;12045;60.214;24.724;2022-11-04T16:02:50;5.05;;;1.80;;
23728;SDS011;12045;60.214;24.724;2022-11-04T16:05:24;4.40;;;1.90;;
23728;SDS011;12045;60.214;24.724;2022-11-04T16:08:12;1.70;;;1.52;;
23728;SDS011;12045;60.214;24.724;2022-11-04T16:13:36;1.83;;;1.52;;
23728;SDS011;12045;60.214;24.724;2022-11-04T16:16:05;2.00;;;1.58;;
23728;SDS011;12045;60.214;24.724;2022-11-04T16:18:42;1.88;;;1.50;;
23728;SDS011;12045;60.214;24.724;2022-11-04T16:21:33;2.60;;;1.50;;
23728;SDS011;12045;60.214;24.724;2022-11-04T16:24:06;2.47;;;1.55;;
23728;SDS011;12045;60.214;24.724;2022-11-04T16:26:55;3.78;;;1.77;;
23728;SDS011;12045;60.214;24.724;2022-11-04T16:32:15;3.80;;;1.88;;
23728;SDS011;12045;60.214;24.724;2022-11-04T16:34:47;2.28;;;1.60;;
23728;SDS011;12045;60.214;24.724;2022-11-04T16:37:18;2.25;;;1.90;;
23728;SDS011;12045;60.214;24.724;2022-11-04T16:39:46;3.50;;;1.88;;
23728;SDS011;12045;60.214;24.724;2022-11-04T16:42:15;1.63;;;1.40;;
23728;SDS011;12045;60.214;24.724;2022-11-04T16:44:47;5.85;;;1.90;;
23728;SDS011;12045;60.214;24.724;2022-11-04T16:47:17;2.20;;;1.92;;
23728;SDS011;12045;60.214;24.724;2022-11-04T16:49:47;3.20;;;2.08;;
23728;SDS011;12045;60.214;24.724;2022-11-04T16:52:16;3.95;;;1.75;;
23728;SDS011;12045;60.214;24.724;2022-11-04T16:54:51;2.05;;;1.40;;
23728;SDS011;12045;60.214;24.724;2022-11-04T16:57:22;2.17;;;1.40;;
23728;SDS011;12045;60.214;24.724;2022-11-04T16:59:51;6.68;;;1.85;;
23728;SDS011;12045;60.214;24.724;2022-11-04T17:04:54;2.10;;;1.00;;
23728;SDS011;12045;60.214;24.724;2022-11-04T17:07:22;1.63;;;1.27;;
23728;SDS011;12045;60.214;24.724;2022-11-04T17:10:21;1.40;;;1.20;;
23728;SDS011;12045;60.214;24.724;2022-11-04T17:12:50;3.95;;;1.38;;
23728;SDS011;12045;60.214;24.724;2022-11-04T17:15:18;3.03;;;1.30;;
23728;SDS011;12045;60.214;24.724;2022-11-04T17:17:45;1.50;;;1.10;;
23728;SDS011;12045;60.214;24.724;2022-11-04T17:20:14;2.20;;;1.00;;
23728;SDS011;12045;60.214;24.724;2022-11-04T17:22:46;2.03;;;1.30;;
23728;SDS011;12045;60.214;24.724;2022-11-04T17:25:19;1.42;;;1.10;;
23728;SDS011;12045;60.214;24.724;2022-11-04T17:27:49;6.78;;;1.30;;
23728;SDS011;12045;60.214;24.724;2022-11-04T17:30:17;2.10;;;1.17;;
23728;SDS011;12045;60.214;24.724;2022-11-04T17:32:47;2.25;;;1.13;;
23728;SDS011;12045;60.214;24.724;2022-11-04T17:35:16;4.38;;;1.33;;
23728;SDS011;12045;60.214;24.724;2022-11-04T17:37:44;3.42;;;1.30;;
23728;SDS011;12045;60.214;24.724;2022-11-04T17:40:13;1.88;;;0.95;;
23728;SDS011;12045;60.214;24.724;2022-11-04T17:42:42;2.22;;;1.02;;
23728;SDS011;12045;60.214;24.724;2022-11-04T17:45:37;1.95;;;1.08;;
23728;SDS011;12045;60.214;24.724;2022-11-04T17:48:06;2.78;;;1.05;;
23728;SDS011;12045;60.214;24.724;2022-11-04T17:50:36;3.25;;;0.90;;
23728;SDS011;12045;60.214;24.724;2022-11-04T17:53:07;0.82;;;0.70;;
23728;SDS011;12045;60.214;24.724;2022-11-04T17:55:36;3.22;;;1.23;;
23728;SDS011;12045;60.214;24.724;2022-11-04T17:58:05;4.78;;;0.70;;
23728;SDS011;12045;60.214;24.724;2022-11-04T18:00:33;1.20;;;0.77;;
23728;SDS011;12045;60.214;24.724;2022-11-04T18:03:00;2.08;;;0.88;;
23728;SDS011;12045;60.214;24.724;2022-11-04T18:05:28;1.77;;;0.70;;
23728;SDS011;12045;60.214;24.724;2022-11-04T18:07:58;0.80;;;0.70;;
23728;SDS011;12045;60.214;24.724;2022-11-04T18:10:27;2.20;;;0.70;;
23728;SDS011;12045;60.214;24.724;2022-11-04T18:12:57;1.58;;;0.70;;
23728;SDS011;12045;60.214;24.724;2022-11-04T18:15:25;3.22;;;1.00;;
23728;SDS011;12045;60.214;24.724;2022-11-04T18:17:52;1.17;;;0.75;;
23728;SDS011;12045;60.214;24.724;2022-11-04T18:20:20;1.40;;;0.70;;
23728;SDS011;12045;60.214;24.724;2022-11-04T18:22:47;4.15;;;0.80;;
23728;SDS011;12045;60.214;24.724;2022-11-04T18:25:15;2.40;;;0.68;;
23728;SDS011;12045;60.214;24.724;2022-11-04T18:27:43;2.58;;;0.65;;
23728;SDS011;12045;60.214;24.724;2022-11-04T18:30:11;1.48;;;0.60;;
23728;SDS011;12045;60.214;24.724;2022-11-04T18:32:39;1.95;;;0.50;;
23728;SDS011;12045;60.214;24.724;2022-11-04T18:35:07;0.63;;;0.60;;
23728;SDS011;12045;60.214;24.724;2022-11-04T18:37:34;1.58;;;0.70;;
23728;SDS011;12045;60.214;24.724;2022-11-04T18:40:02;0.40;;;0.40;;
23728;SDS011;12045;60.214;24.724;2022-11-04T18:42:30;2.88;;;0.65;;
23728;SDS011;12045;60.214;24.724;2022-11-04T18:44:58;0.60;;;0.60;;